Time;durP1;ratioP1;P1;durP2;ratioP2;P2;SDS_P1;SDS_P2;PMS_P1;PMS_P2;Temp;Humidity;BMP_temperature;BMP_pressure;BME280_temperature;BME280_humidity;BME280_pressure;Samples;Min_cycle;Max_cycle;Signal;HPM_P1;HPM_P2
2021/12/29 00:02:04;;;;;;;5.45;3.13;;;19.50;46.30;;;;;;5035751;28;20195;-71
2021/12/29 00:04:31;;;;;;;5.00;3.17;;;19.50;46.40;;;;;;5035623;28;20205;-70
2021/12/29 00:07:00;;;;;;;5.60;3.50;;;19.40;46.30;;;;;;5035168;28;20227;-70
2021/12/29 00:09:28;;;;;;;5.78;3.40;;;19.50;46.40;;;;;;5035582;28;20301;-70
2021/12/29 00:11:55;;;;;;;4.50;3.10;;;19.40;46.40;;;;;;5035494;28;20206;-68
2021/12/29 00:14:23;;;;;;;4.50;3.30;;;19.40;46.30;;;;;;5035800;28;20219;-70
2021/12/29 00:16:51;;;;;;;4.28;3.20;;;19.40;46.30;;;;;;5054060;28;20593;-70
2021/12/29 00:19:18;;;;;;;4.63;3.20;;;19.40;46.40;;;;;;5037119;28;20279;-70
2021/12/29 00:21:45;;;;;;;4.00;2.90;;;19.40;46.40;;;;;;5035725;28;20196;-71
2021/12/29 00:24:13;;;;;;;5.20;3.45;;;19.40;46.30;;;;;;5035774;28;20295;-69
2021/12/29 00:26:41;;;;;;;4.65;3.28;;;19.40;46.40;;;;;;5036160;28;20757;-67
2021/12/29 00:29:08;;;;;;;5.78;3.10;;;19.40;46.40;;;;;;5036134;28;20191;-70
2021/12/29 00:31:37;;;;;;;4.45;3.15;;;19.40;46.50;;;;;;5052881;28;20198;-69
2021/12/29 00:34:23;;;;;;;4.97;3.25;;;19.30;46.40;;;;;;5055400;28;20171;-69
2021/12/29 00:37:08;;;;;;;4.45;3.13;;;19.30;46.40;;;;;;5054536;28;20283;-70
2021/12/29 00:39:56;;;;;;;4.18;2.78;;;19.30;46.40;;;;;;5054495;28;20195;-68
2021/12/29 00:42:41;;;;;;;4.50;3.17;;;19.30;46.40;;;;;;5054294;28;20198;-70
2021/12/29 00:45:31;;;;;;;4.40;2.95;;;19.30;46.40;;;;;;5054262;28;20190;-70
2021/12/29 00:47:58;;;;;;;3.42;2.65;;;19.30;46.40;;;;;;5035778;28;20215;-69
2021/12/29 00:50:25;;;;;;;3.30;2.58;;;19.30;46.50;;;;;;5035936;28;20205;-70
2021/12/29 00:52:52;;;;;;;5.05;3.13;;;19.20;46.40;;;;;;5035921;28;20205;-71
2021/12/29 00:55:21;;;;;;;3.75;3.05;;;19.20;46.40;;;;;;5035583;28;20278;-70
2021/12/29 00:57:48;;;;;;;3.95;2.65;;;19.20;46.40;;;;;;5035729;28;20705;-69
2021/12/29 01:00:16;;;;;;;4.45;2.95;;;19.20;46.40;;;;;;5035512;28;20249;-68
2021/12/29 01:02:44;;;;;;;4.68;2.80;;;19.20;46.40;;;;;;5035274;28;20679;-69
2021/12/29 01:05:11;;;;;;;3.88;2.80;;;19.20;46.40;;;;;;5054531;28;20191;-70
2021/12/29 01:07:39;;;;;;;3.42;2.65;;;19.20;46.40;;;;;;5035257;28;20264;-69
2021/12/29 01:10:06;;;;;;;2.90;2.40;;;19.10;46.40;;;;;;5034800;28;20727;-68
2021/12/29 01:12:35;;;;;;;4.65;2.85;;;19.10;46.50;;;;;;5034961;28;20199;-69
2021/12/29 01:15:03;;;;;;;4.13;2.90;;;19.10;46.40;;;;;;5035243;28;20567;-71
2021/12/29 01:17:31;;;;;;;4.60;2.95;;;19.10;46.50;;;;;;5034617;28;20224;-70
2021/12/29 01:19:58;;;;;;;4.15;2.50;;;19.10;46.40;;;;;;5034850;28;20196;-68
2021/12/29 01:22:26;;;;;;;3.40;2.60;;;19.10;46.50;;;;;;5034729;28;20550;-70
2021/12/29 01:24:53;;;;;;;4.05;2.58;;;19.10;46.50;;;;;;5036718;28;20272;-70
2021/12/29 01:27:20;;;;;;;4.13;3.20;;;19.00;46.60;;;;;;5038525;28;20565;-70
2021/12/29 01:29:50;;;;;;;4.18;2.58;;;19.00;46.40;;;;;;5038766;28;20207;-69
2021/12/29 01:32:17;;;;;;;3.17;2.25;;;19.00;47.10;;;;;;5037996;28;20196;-70
2021/12/29 01:34:44;;;;;;;3.47;2.22;;;19.00;46.50;;;;;;5037996;28;20206;-68
2021/12/29 01:37:11;;;;;;;3.38;2.42;;;19.00;46.50;;;;;;5037895;28;20241;-69
2021/12/29 01:39:38;;;;;;;3.78;2.60;;;19.00;46.50;;;;;;5038012;28;20210;-68
2021/12/29 01:42:06;;;;;;;2.95;2.60;;;19.00;47.20;;;;;;5055716;28;20242;-69
2021/12/29 01:44:33;;;;;;;3.85;2.53;;;19.00;46.60;;;;;;5037931;28;20282;-70
2021/12/29 01:47:01;;;;;;;3.78;2.78;;;19.00;46.60;;;;;;5037736;28;20219;-68
2021/12/29 01:49:28;;;;;;;2.90;2.40;;;18.90;46.60;;;;;;5037619;28;20197;-68
2021/12/29 01:52:04;;;;;;;3.08;2.15;;;18.90;47.10;;;;;;5055408;28;20191;-69
2021/12/29 01:54:35;;;;;;;4.53;2.67;;;18.90;46.50;;;;;;5055581;28;20172;-68
2021/12/29 01:57:04;;;;;;;2.50;2.20;;;18.90;46.60;;;;;;5037434;28;20277;-67
2021/12/29 01:59:31;;;;;;;3.67;2.40;;;18.90;46.60;;;;;;5037530;28;20297;-69
2021/12/29 02:01:58;;;;;;;3.63;2.40;;;18.90;46.50;;;;;;5037423;28;20199;-70
2021/12/29 02:04:27;;;;;;;4.10;2.63;;;18.90;46.60;;;;;;5037485;28;20218;-70
2021/12/29 02:06:55;;;;;;;2.25;2.05;;;18.90;46.70;;;;;;5055134;28;20265;-70
2021/12/29 02:09:22;;;;;;;3.28;2.22;;;18.90;46.70;;;;;;5055166;28;20195;-69
2021/12/29 02:11:49;;;;;;;4.45;2.65;;;18.80;46.50;;;;;;5055275;28;20206;-71
2021/12/29 02:14:16;;;;;;;2.88;2.20;;;18.90;46.70;;;;;;5037105;28;20199;-70
2021/12/29 02:16:43;;;;;;;3.38;2.47;;;18.80;46.60;;;;;;5054613;28;20559;-70
2021/12/29 02:19:12;;;;;;;2.70;2.20;;;18.80;46.60;;;;;;5036835;28;20253;-69
2021/12/29 02:21:42;;;;;;;2.80;2.10;;;18.80;46.60;;;;;;5036967;28;20648;-71
2021/12/29 02:24:17;;;;;;;2.90;2.13;;;18.80;46.60;;;;;;5036960;28;20261;-71
2021/12/29 02:26:45;;;;;;;3.22;1.98;;;18.80;46.60;;;;;;5036992;28;20314;-69
2021/12/29 02:29:13;;;;;;;3.80;2.10;;;18.80;46.60;;;;;;5054712;28;20203;-71
2021/12/29 02:31:40;;;;;;;2.33;2.13;;;18.80;46.60;;;;;;5054735;28;20613;-71
2021/12/29 02:34:10;;;;;;;3.05;2.10;;;18.80;46.60;;;;;;5037125;28;20199;-68
2021/12/29 02:36:43;;;;;;;3.08;2.00;;;18.70;46.60;;;;;;5036597;28;20215;-69
2021/12/29 02:39:13;;;;;;;2.72;2.13;;;18.70;46.60;;;;;;5054597;28;20613;-70
2021/12/29 02:41:42;;;;;;;3.25;2.10;;;18.80;46.70;;;;;;5036959;28;20196;-69
2021/12/29 02:44:15;;;;;;;2.40;2.20;;;18.70;46.60;;;;;;5036569;28;20572;-68
2021/12/29 02:46:42;;;;;;;2.72;2.10;;;18.70;46.60;;;;;;5036678;28;20251;-72
2021/12/29 02:49:09;;;;;;;3.28;2.00;;;18.70;46.60;;;;;;5036464;28;20216;-71
2021/12/29 02:51:36;;;;;;;2.40;2.05;;;18.70;46.70;;;;;;5036566;28;20206;-70
2021/12/29 02:54:04;;;;;;;2.28;1.75;;;18.70;46.60;;;;;;5036809;28;20690;-70
2021/12/29 02:56:32;;;;;;;2.58;2.20;;;18.70;46.60;;;;;;5036415;28;20215;-68
2021/12/29 02:58:59;;;;;;;4.70;2.35;;;18.70;46.70;;;;;;5036537;28;20261;-69
2021/12/29 03:01:27;;;;;;;2.97;2.25;;;18.70;46.60;;;;;;5036180;28;20249;-71
2021/12/29 03:03:55;;;;;;;2.75;2.00;;;18.70;46.60;;;;;;5036390;28;20218;-71
2021/12/29 03:06:22;;;;;;;2.85;2.05;;;18.70;46.60;;;;;;5036351;28;20245;-71
2021/12/29 03:08:49;;;;;;;2.33;2.10;;;18.70;46.70;;;;;;5036538;28;20235;-68
2021/12/29 03:11:16;;;;;;;2.88;1.92;;;18.60;46.70;;;;;;5036564;28;20210;-70
2021/12/29 03:13:45;;;;;;;2.80;2.15;;;18.60;46.60;;;;;;5036177;28;20199;-70
2021/12/29 03:16:12;;;;;;;2.45;2.10;;;18.60;46.80;;;;;;5054222;28;20235;-68
2021/12/29 03:18:40;;;;;;;2.13;1.80;;;18.60;46.80;;;;;;5036042;28;20214;-71
2021/12/29 03:21:07;;;;;;;2.78;2.00;;;18.60;46.80;;;;;;5036245;28;20199;-70
2021/12/29 03:23:35;;;;;;;2.08;1.88;;;18.60;46.90;;;;;;5053810;28;20556;-72
2021/12/29 03:26:02;;;;;;;2.10;1.90;;;18.60;46.80;;;;;;5035671;28;20195;-69
2021/12/29 03:28:30;;;;;;;2.05;1.85;;;18.60;46.80;;;;;;5035569;28;20222;-71
2021/12/29 03:30:59;;;;;;;2.40;2.00;;;18.60;46.90;;;;;;5035912;28;20291;-71
2021/12/29 03:33:28;;;;;;;3.25;1.90;;;18.60;46.90;;;;;;5035880;28;20415;-70
2021/12/29 03:35:59;;;;;;;2.60;1.83;;;18.60;46.80;;;;;;5035703;28;20210;-70
2021/12/29 03:38:26;;;;;;;1.90;1.75;;;18.60;46.80;;;;;;5035631;28;20263;-71
2021/12/29 03:40:54;;;;;;;1.70;1.60;;;18.60;46.80;;;;;;5035679;28;20304;-71
2021/12/29 03:43:20;;;;;;;2.15;1.95;;;18.50;46.60;;;;;;5053459;28;20180;-69
2021/12/29 03:45:50;;;;;;;2.20;2.00;;;18.50;46.80;;;;;;5035720;28;20199;-69
2021/12/29 03:48:19;;;;;;;2.20;2.00;;;18.50;46.80;;;;;;5034915;28;20242;-69
2021/12/29 03:50:46;;;;;;;2.25;2.05;;;18.50;46.80;;;;;;5035761;28;20191;-68
2021/12/29 03:53:14;;;;;;;2.13;1.77;;;18.50;46.70;;;;;;5035752;28;20199;-70
2021/12/29 03:55:41;;;;;;;1.83;1.73;;;18.50;46.60;;;;;;5036338;28;20230;-70
2021/12/29 03:58:08;;;;;;;2.00;1.70;;;18.50;46.80;;;;;;5054010;28;20738;-71
2021/12/29 04:00:35;;;;;;;2.08;1.73;;;18.50;46.70;;;;;;5035675;28;20188;-71
2021/12/29 04:03:03;;;;;;;2.17;1.80;;;18.50;46.70;;;;;;5035589;28;20242;-70
2021/12/29 04:05:31;;;;;;;2.22;1.70;;;18.50;46.70;;;;;;5035427;28;20195;-71
2021/12/29 04:07:59;;;;;;;2.00;1.80;;;18.50;46.80;;;;;;5035251;28;20306;-70
2021/12/29 04:10:27;;;;;;;2.05;1.77;;;18.50;46.80;;;;;;5035346;28;20203;-70
2021/12/29 04:12:54;;;;;;;1.80;1.70;;;18.50;46.80;;;;;;5035020;28;20655;-70
2021/12/29 04:15:21;;;;;;;1.92;1.73;;;18.50;46.90;;;;;;5053072;28;20223;-70
2021/12/29 04:17:49;;;;;;;2.33;2.10;;;18.50;46.90;;;;;;5035098;28;20227;-67
2021/12/29 04:23:07;;;;;;;1.77;1.67;;;18.50;46.90;;;;;;5010995;28;20594;-71
2021/12/29 04:25:36;;;;;;;1.83;1.50;;;18.50;46.90;;;;;;5034895;28;20298;-69
2021/12/29 04:28:04;;;;;;;1.83;1.73;;;18.50;46.90;;;;;;5034786;28;20227;-70
2021/12/29 04:30:32;;;;;;;2.00;1.58;;;18.50;46.80;;;;;;5034906;28;20192;-70
2021/12/29 04:32:59;;;;;;;1.70;1.60;;;18.50;46.80;;;;;;5052637;28;20201;-70
2021/12/29 04:35:27;;;;;;;1.60;1.50;;;18.50;46.80;;;;;;5052652;28;20191;-70
2021/12/29 04:37:53;;;;;;;2.22;1.65;;;18.60;46.80;;;;;;5035144;28;20211;-69
2021/12/29 04:40:23;;;;;;;2.40;1.67;;;18.60;46.80;;;;;;5034861;28;20195;-68
2021/12/29 04:42:50;;;;;;;1.83;1.73;;;18.60;46.80;;;;;;5034957;28;20201;-71
2021/12/29 04:45:18;;;;;;;1.70;1.52;;;18.60;46.70;;;;;;5034611;28;20253;-72
2021/12/29 04:47:47;;;;;;;2.45;1.80;;;18.60;46.60;;;;;;5052618;28;20242;-70
2021/12/29 04:50:24;;;;;;;2.92;1.70;;;18.70;46.60;;;;;;5034823;28;20203;-69
2021/12/29 04:52:52;;;;;;;1.83;1.73;;;18.70;46.60;;;;;;5052787;28;20203;-69
2021/12/29 04:55:19;;;;;;;1.80;1.70;;;18.70;46.60;;;;;;5034739;28;20563;-71
2021/12/29 04:57:47;;;;;;;1.60;1.50;;;18.70;46.60;;;;;;5034582;28;20258;-68
2021/12/29 05:00:16;;;;;;;1.67;1.58;;;18.70;46.50;;;;;;5036961;28;20238;-69
2021/12/29 05:02:43;;;;;;;2.17;1.83;;;18.70;46.50;;;;;;5038653;28;20204;-70
2021/12/29 05:05:21;;;;;;;1.90;1.70;;;18.70;46.50;;;;;;5056590;28;20290;-72
2021/12/29 05:10:48;;;;;;;1.77;1.50;;;18.70;46.40;;;;;;4955774;29;20297;-68
2021/12/29 05:13:17;;;;;;;1.60;1.50;;;18.80;46.40;;;;;;4956023;29;20340;-70
2021/12/29 05:15:47;;;;;;;2.40;1.80;;;18.80;46.40;;;;;;4984544;28;20207;-69
2021/12/29 05:18:14;;;;;;;1.98;1.80;;;18.80;46.40;;;;;;5038256;28;20207;-70
2021/12/29 05:20:41;;;;;;;2.13;1.70;;;18.80;46.40;;;;;;5037967;28;20202;-71
2021/12/29 05:23:09;;;;;;;1.70;1.60;;;18.80;46.40;;;;;;5037953;28;20257;-71
2021/12/29 05:25:36;;;;;;;1.90;1.80;;;18.80;46.40;;;;;;5038171;28;20275;-70
2021/12/29 05:28:03;;;;;;;1.88;1.67;;;18.80;46.30;;;;;;5037724;28;20215;-69
2021/12/29 05:30:31;;;;;;;2.60;1.67;;;18.80;46.30;;;;;;5054548;28;20198;-69
2021/12/29 05:32:59;;;;;;;1.70;1.60;;;18.80;46.30;;;;;;5037994;28;20196;-72
2021/12/29 05:35:25;;;;;;;1.75;1.65;;;18.80;46.20;;;;;;5037822;28;20306;-71
2021/12/29 05:37:53;;;;;;;3.65;1.88;;;18.80;46.20;;;;;;5037543;28;20221;-67
2021/12/29 05:40:19;;;;;;;2.10;1.90;;;18.90;46.30;;;;;;5037732;28;20235;-67
2021/12/29 05:42:46;;;;;;;2.00;1.80;;;18.80;46.40;;;;;;5038400;28;20266;-68
2021/12/29 05:45:14;;;;;;;2.17;1.70;;;18.80;46.50;;;;;;5037689;28;20203;-68
2021/12/29 05:47:43;;;;;;;1.90;1.80;;;18.90;46.80;;;;;;5037871;28;20293;-70
2021/12/29 05:50:12;;;;;;;2.42;1.70;;;18.90;46.70;;;;;;5055354;28;20491;-70
2021/12/29 05:52:39;;;;;;;2.58;1.85;;;18.90;46.80;;;;;;5055160;28;20191;-70
2021/12/29 05:55:07;;;;;;;1.58;1.48;;;18.90;46.90;;;;;;5054288;28;20202;-67
2021/12/29 05:57:35;;;;;;;1.80;1.70;;;18.90;47.10;;;;;;5037258;28;20227;-68
2021/12/29 06:00:03;;;;;;;1.63;1.52;;;18.90;47.00;;;;;;5037430;28;20192;-67
2021/12/29 06:02:32;;;;;;;1.50;1.40;;;19.00;47.20;;;;;;5055364;28;20230;-70
2021/12/29 06:05:00;;;;;;;1.77;1.60;;;19.00;46.90;;;;;;5037399;28;20227;-68
2021/12/29 06:07:27;;;;;;;2.60;1.63;;;19.00;46.90;;;;;;5037353;28;20265;-66
2021/12/29 06:09:55;;;;;;;2.25;1.70;;;19.00;46.70;;;;;;5036669;28;20223;-70
2021/12/29 06:12:22;;;;;;;2.40;1.70;;;19.00;46.90;;;;;;5037407;28;20196;-70
2021/12/29 06:14:50;;;;;;;1.83;1.63;;;19.10;47.10;;;;;;5037040;28;20199;-68
2021/12/29 06:17:17;;;;;;;1.50;1.40;;;19.10;46.90;;;;;;5036852;28;20321;-68
2021/12/29 06:19:45;;;;;;;2.70;1.50;;;19.10;47.00;;;;;;5038319;28;20686;-69
2021/12/29 06:22:13;;;;;;;1.92;1.60;;;19.10;47.10;;;;;;5037195;28;20195;-68
2021/12/29 06:24:41;;;;;;;1.85;1.70;;;19.10;46.80;;;;;;5055089;28;20664;-70
2021/12/29 06:27:08;;;;;;;2.05;1.38;;;19.10;46.60;;;;;;5054837;28;20219;-68
2021/12/29 06:29:35;;;;;;;1.80;1.70;;;19.10;46.40;;;;;;5037018;28;20675;-68
2021/12/29 06:32:02;;;;;;;1.67;1.58;;;19.10;46.40;;;;;;5054785;28;20194;-68
2021/12/29 06:34:30;;;;;;;1.60;1.50;;;19.10;46.30;;;;;;5037130;28;20195;-66
2021/12/29 06:36:58;;;;;;;1.63;1.30;;;19.10;46.30;;;;;;5036911;28;20569;-66
2021/12/29 06:39:26;;;;;;;1.60;1.50;;;19.20;46.30;;;;;;5054813;28;20278;-67
2021/12/29 06:41:53;;;;;;;2.45;1.50;;;19.10;46.20;;;;;;5036967;28;20199;-70
2021/12/29 06:44:20;;;;;;;1.77;1.52;;;19.10;46.10;;;;;;5037073;28;20206;-67
2021/12/29 06:46:47;;;;;;;1.83;1.55;;;19.20;46.20;;;;;;5037338;28;20223;-68
2021/12/29 06:49:15;;;;;;;1.77;1.63;;;19.20;46.10;;;;;;5054976;28;20207;-68
2021/12/29 06:51:41;;;;;;;2.72;1.70;;;19.20;46.10;;;;;;5055170;28;20672;-68
2021/12/29 06:54:09;;;;;;;1.50;1.40;;;19.20;46.10;;;;;;5037350;28;20195;-67
2021/12/29 06:56:37;;;;;;;2.28;1.60;;;19.20;46.00;;;;;;5037172;28;20273;-66
2021/12/29 06:59:04;;;;;;;1.60;1.50;;;19.20;45.90;;;;;;5036829;28;20301;-69
2021/12/29 07:01:31;;;;;;;3.58;1.75;;;19.20;45.90;;;;;;5036780;28;20207;-66
2021/12/29 07:03:59;;;;;;;3.35;1.70;;;19.20;45.90;;;;;;5036754;28;20285;-68
2021/12/29 07:06:26;;;;;;;1.95;1.75;;;19.20;45.90;;;;;;5036650;28;20207;-69
2021/12/29 07:08:53;;;;;;;1.80;1.70;;;19.20;45.90;;;;;;5036426;28;20215;-68
2021/12/29 07:11:20;;;;;;;1.60;1.50;;;19.20;45.90;;;;;;5036796;28;20199;-68
2021/12/29 07:13:49;;;;;;;1.70;1.52;;;19.20;45.90;;;;;;5036992;28;20199;-67
2021/12/29 07:16:17;;;;;;;1.65;1.55;;;19.20;45.90;;;;;;5036165;28;20224;-70
2021/12/29 07:18:48;;;;;;;1.70;1.60;;;19.20;45.90;;;;;;5036737;28;20204;-69
2021/12/29 07:21:15;;;;;;;1.92;1.70;;;19.30;45.90;;;;;;5036310;28;20208;-68
2021/12/29 07:23:43;;;;;;;1.63;1.50;;;19.20;45.80;;;;;;5035982;28;20196;-69
2021/12/29 07:26:10;;;;;;;1.50;1.40;;;19.30;45.90;;;;;;5036459;28;20215;-68
2021/12/29 07:28:37;;;;;;;1.88;1.55;;;19.20;45.70;;;;;;5036603;28;20196;-70
2021/12/29 07:31:06;;;;;;;1.48;1.35;;;19.20;45.70;;;;;;5036200;28;20199;-67
2021/12/29 07:33:33;;;;;;;1.73;1.50;;;19.30;45.80;;;;;;5036288;28;20227;-68
2021/12/29 07:36:01;;;;;;;1.92;1.70;;;19.20;45.70;;;;;;5053910;28;20195;-69
2021/12/29 07:38:28;;;;;;;1.92;1.50;;;19.20;46.20;;;;;;5036215;28;20234;-70
2021/12/29 07:40:55;;;;;;;1.75;1.52;;;19.30;46.30;;;;;;5036027;28;20737;-68
2021/12/29 07:43:22;;;;;;;1.50;1.40;;;19.30;45.70;;;;;;5054448;28;20183;-67
2021/12/29 07:45:50;;;;;;;1.63;1.50;;;19.30;45.70;;;;;;5036263;28;20290;-69
2021/12/29 07:48:25;;;;;;;1.73;1.40;;;19.30;45.70;;;;;;5036497;28;20200;-68
2021/12/29 07:50:52;;;;;;;1.40;1.30;;;19.30;45.70;;;;;;5036333;28;20215;-68
2021/12/29 07:53:19;;;;;;;1.50;1.40;;;19.30;45.70;;;;;;5036326;28;20206;-69
2021/12/29 07:55:47;;;;;;;1.70;1.60;;;19.30;45.70;;;;;;5054296;28;20301;-66
2021/12/29 07:58:14;;;;;;;1.70;1.50;;;19.30;45.70;;;;;;5036707;28;20207;-69
2021/12/29 08:00:42;;;;;;;1.92;1.40;;;19.30;45.70;;;;;;5036579;28;20282;-70
2021/12/29 08:03:11;;;;;;;1.52;1.42;;;19.30;45.90;;;;;;5036808;28;20206;-70
2021/12/29 08:05:40;;;;;;;1.65;1.55;;;19.30;45.70;;;;;;5054410;28;20191;-68
2021/12/29 08:08:07;;;;;;;1.40;1.30;;;19.30;45.70;;;;;;5036570;28;20633;-68
2021/12/29 08:10:34;;;;;;;1.40;1.30;;;19.40;45.70;;;;;;5037847;28;20261;-68
2021/12/29 08:13:01;;;;;;;1.50;1.40;;;19.30;45.70;;;;;;5037000;28;20682;-68
2021/12/29 08:15:29;;;;;;;2.08;1.45;;;19.30;45.70;;;;;;5036558;28;20231;-66
2021/12/29 08:17:56;;;;;;;1.50;1.40;;;19.30;45.60;;;;;;5036035;28;20707;-66
2021/12/29 08:20:23;;;;;;;1.48;1.38;;;19.30;45.60;;;;;;5036342;28;20214;-67
2021/12/29 08:22:52;;;;;;;1.60;1.50;;;19.30;45.60;;;;;;5054037;28;20659;-69
2021/12/29 08:25:19;;;;;;;1.38;1.30;;;19.40;45.70;;;;;;5036099;28;20210;-67
2021/12/29 08:27:47;;;;;;;1.50;1.40;;;19.40;45.60;;;;;;5036149;28;20699;-67
2021/12/29 08:30:14;;;;;;;1.70;1.40;;;19.40;45.50;;;;;;5035697;28;20222;-67
2021/12/29 08:32:41;;;;;;;1.48;1.38;;;19.40;45.60;;;;;;5035474;28;20295;-68
2021/12/29 08:35:09;;;;;;;1.50;1.40;;;19.40;45.60;;;;;;5057688;28;20195;-68
2021/12/29 08:37:37;;;;;;;2.15;1.50;;;19.40;45.50;;;;;;5039321;28;20222;-70
2021/12/29 08:40:07;;;;;;;1.40;1.30;;;19.40;45.50;;;;;;5039625;28;20199;-70
2021/12/29 08:42:34;;;;;;;1.50;1.40;;;19.50;45.50;;;;;;5039272;28;20191;-69
2021/12/29 08:45:01;;;;;;;1.65;1.40;;;19.50;46.10;;;;;;5039301;28;20590;-68
2021/12/29 08:47:28;;;;;;;1.58;1.48;;;19.50;45.40;;;;;;5039111;28;20226;-66
2021/12/29 08:49:55;;;;;;;1.42;1.33;;;19.50;45.40;;;;;;5039198;28;20235;-68
2021/12/29 08:52:22;;;;;;;1.48;1.35;;;19.50;45.40;;;;;;5039172;28;20202;-68
2021/12/29 08:54:49;;;;;;;1.95;1.60;;;19.60;45.50;;;;;;5039257;28;20195;-68
2021/12/29 08:57:17;;;;;;;2.63;1.67;;;19.60;45.50;;;;;;5039269;28;20716;-67
2021/12/29 08:59:44;;;;;;;1.55;1.40;;;19.60;45.50;;;;;;5039208;28;20194;-69
2021/12/29 09:02:12;;;;;;;1.60;1.50;;;19.60;45.50;;;;;;5038663;28;20238;-67
2021/12/29 09:04:39;;;;;;;1.88;1.40;;;19.60;45.50;;;;;;5056810;28;20668;-67
2021/12/29 09:07:06;;;;;;;1.60;1.50;;;19.60;45.50;;;;;;5038811;28;20635;-68
2021/12/29 09:09:34;;;;;;;2.63;1.73;;;19.60;45.50;;;;;;5038573;28;20242;-70
2021/12/29 09:12:01;;;;;;;1.92;1.73;;;19.70;45.50;;;;;;5056492;28;20187;-68
2021/12/29 09:14:30;;;;;;;1.98;1.70;;;19.70;45.50;;;;;;5038570;28;20200;-68
2021/12/29 09:16:57;;;;;;;1.73;1.63;;;19.70;45.50;;;;;;5038669;28;20698;-69
2021/12/29 09:19:24;;;;;;;2.28;1.50;;;19.70;45.50;;;;;;5038471;28;20563;-68
2021/12/29 09:21:53;;;;;;;1.92;1.60;;;19.70;45.40;;;;;;5056614;28;20287;-68
2021/12/29 09:24:20;;;;;;;1.63;1.52;;;19.70;45.40;;;;;;5038968;28;20206;-68
2021/12/29 09:26:47;;;;;;;1.45;1.35;;;19.70;45.40;;;;;;5038242;28;20216;-68
2021/12/29 09:29:15;;;;;;;1.60;1.50;;;19.70;45.30;;;;;;5056341;28;20192;-70
2021/12/29 09:31:43;;;;;;;1.77;1.67;;;19.70;45.30;;;;;;5038671;28;20215;-68
2021/12/29 09:34:10;;;;;;;1.65;1.55;;;19.80;45.30;;;;;;5038390;28;20211;-70
2021/12/29 09:36:37;;;;;;;1.48;1.38;;;19.80;45.30;;;;;;5056507;28;20214;-70
2021/12/29 09:39:04;;;;;;;1.98;1.50;;;19.80;45.50;;;;;;5038687;28;20199;-66
2021/12/29 09:41:32;;;;;;;1.63;1.52;;;19.80;45.30;;;;;;5038583;28;20203;-69
2021/12/29 09:43:59;;;;;;;1.80;1.70;;;19.80;45.40;;;;;;5038871;28;20195;-66
2021/12/29 09:46:26;;;;;;;1.65;1.50;;;19.90;45.40;;;;;;5037104;28;20288;-68
2021/12/29 09:48:55;;;;;;;1.45;1.35;;;19.90;45.40;;;;;;5038108;28;20195;-68
2021/12/29 09:51:22;;;;;;;1.60;1.50;;;19.90;45.30;;;;;;5037695;28;20251;-69
2021/12/29 09:53:50;;;;;;;1.67;1.58;;;19.90;45.10;;;;;;5037716;28;20196;-69
2021/12/29 09:56:16;;;;;;;1.50;1.40;;;19.90;45.20;;;;;;5037624;28;20264;-68
2021/12/29 09:58:43;;;;;;;1.60;1.50;;;19.90;45.20;;;;;;5037461;28;20563;-67
2021/12/29 10:01:10;;;;;;;1.60;1.50;;;19.90;45.30;;;;;;5037364;28;20302;-67
2021/12/29 10:03:37;;;;;;;1.52;1.42;;;19.90;45.20;;;;;;5037129;28;20194;-70
2021/12/29 10:06:07;;;;;;;1.52;1.42;;;19.90;45.20;;;;;;5037294;28;20206;-68
2021/12/29 10:08:35;;;;;;;2.88;1.70;;;20.00;45.30;;;;;;5037064;28;20207;-67
2021/12/29 10:11:03;;;;;;;1.60;1.50;;;20.00;45.30;;;;;;5037248;28;20215;-68
2021/12/29 10:13:31;;;;;;;1.60;1.50;;;20.00;45.20;;;;;;5037371;28;20196;-69
2021/12/29 10:16:01;;;;;;;1.58;1.48;;;20.00;45.10;;;;;;5054825;28;20675;-68
2021/12/29 10:18:29;;;;;;;2.42;1.67;;;20.00;45.20;;;;;;5037155;28;20206;-69
2021/12/29 10:20:57;;;;;;;1.40;1.30;;;20.00;45.20;;;;;;5037254;28;20195;-68
2021/12/29 10:23:27;;;;;;;2.05;1.67;;;20.00;45.10;;;;;;5054859;28;20222;-68
2021/12/29 10:25:54;;;;;;;2.95;1.60;;;20.00;45.10;;;;;;5036769;28;20195;-68
2021/12/29 10:28:26;;;;;;;1.60;1.50;;;20.00;45.10;;;;;;5053484;28;20195;-68
2021/12/29 10:30:57;;;;;;;1.98;1.50;;;20.10;45.10;;;;;;5036736;28;20737;-66
2021/12/29 10:33:24;;;;;;;1.65;1.55;;;20.10;45.10;;;;;;5037068;28;20195;-69
2021/12/29 10:35:51;;;;;;;1.50;1.40;;;20.10;45.10;;;;;;5036868;28;20203;-68
2021/12/29 10:38:19;;;;;;;1.60;1.50;;;20.10;45.10;;;;;;5036620;28;20198;-67
2021/12/29 10:40:48;;;;;;;1.63;1.52;;;20.10;45.00;;;;;;5036593;28;20244;-70
2021/12/29 10:43:16;;;;;;;1.50;1.40;;;20.10;45.10;;;;;;5036775;28;20192;-66
2021/12/29 10:45:46;;;;;;;1.70;1.60;;;20.10;45.00;;;;;;5036489;28;20318;-70
2021/12/29 10:48:19;;;;;;;1.75;1.60;;;20.10;45.00;;;;;;5036631;28;20196;-69
2021/12/29 10:50:57;;;;;;;1.60;1.50;;;20.10;45.00;;;;;;5037268;28;20234;-68
2021/12/29 10:53:24;;;;;;;1.42;1.33;;;20.10;45.00;;;;;;5054706;28;20638;-66
2021/12/29 10:55:53;;;;;;;1.52;1.42;;;20.20;45.00;;;;;;5036246;28;20203;-69
2021/12/29 10:58:21;;;;;;;2.00;1.90;;;20.20;45.00;;;;;;5036334;28;20199;-67
2021/12/29 11:00:50;;;;;;;1.60;1.50;;;20.20;45.00;;;;;;5054419;28;20575;-66
2021/12/29 11:03:19;;;;;;;1.60;1.50;;;20.20;44.90;;;;;;5052912;28;20204;-68
2021/12/29 11:05:48;;;;;;;1.90;1.60;;;20.20;45.00;;;;;;5054036;28;20274;-67
2021/12/29 11:08:16;;;;;;;1.80;1.70;;;20.30;44.90;;;;;;5036304;28;20203;-66
2021/12/29 11:10:45;;;;;;;1.90;1.70;;;20.30;44.80;;;;;;5036840;28;20235;-68
2021/12/29 11:13:24;;;;;;;1.95;1.70;;;20.20;44.80;;;;;;5036394;28;20207;-67
2021/12/29 11:15:52;;;;;;;1.70;1.60;;;20.30;44.80;;;;;;5036406;28;20195;-69
2021/12/29 11:18:19;;;;;;;2.40;1.70;;;20.30;44.60;;;;;;5036570;28;20261;-68
2021/12/29 11:20:46;;;;;;;2.10;1.70;;;20.30;44.60;;;;;;5054425;28;20272;-67
2021/12/29 11:23:15;;;;;;;1.50;1.40;;;20.30;44.60;;;;;;5036329;28;20200;-66
2021/12/29 11:25:43;;;;;;;1.58;1.40;;;20.30;44.60;;;;;;5036636;28;20206;-68
2021/12/29 11:28:22;;;;;;;2.10;1.70;;;20.30;44.50;;;;;;5035842;28;20285;-69
2021/12/29 11:30:49;;;;;;;1.77;1.50;;;20.40;44.60;;;;;;5036467;28;20214;-67
2021/12/29 11:33:16;;;;;;;1.90;1.80;;;20.30;44.40;;;;;;5036435;28;20206;-68
2021/12/29 11:35:45;;;;;;;1.95;1.80;;;20.40;44.50;;;;;;5036464;28;20195;-69
2021/12/29 11:38:12;;;;;;;1.60;1.50;;;20.30;44.40;;;;;;5036557;28;20256;-68
2021/12/29 11:40:41;;;;;;;2.28;1.80;;;20.40;44.50;;;;;;5036169;28;20604;-67
2021/12/29 11:43:08;;;;;;;1.85;1.70;;;20.40;44.50;;;;;;5036332;28;20199;-68
2021/12/29 11:45:37;;;;;;;2.03;1.75;;;20.40;44.50;;;;;;5036302;28;20199;-70
2021/12/29 11:48:05;;;;;;;2.10;1.60;;;20.40;44.30;;;;;;5036127;28;20226;-69
2021/12/29 11:50:34;;;;;;;1.75;1.58;;;20.40;44.50;;;;;;5036292;28;20223;-69
2021/12/29 11:53:11;;;;;;;1.95;1.45;;;20.40;44.50;;;;;;5036192;28;20200;-67
2021/12/29 11:55:42;;;;;;;1.65;1.55;;;20.40;44.40;;;;;;5036043;28;20197;-68
2021/12/29 11:58:11;;;;;;;1.80;1.70;;;20.40;44.30;;;;;;5035930;28;20786;-70
2021/12/29 12:00:39;;;;;;;1.90;1.70;;;20.40;44.30;;;;;;5035900;28;20660;-68
2021/12/29 12:03:09;;;;;;;2.17;1.98;;;20.40;44.30;;;;;;5035497;28;20207;-67
2021/12/29 12:05:37;;;;;;;1.70;1.60;;;20.40;44.30;;;;;;5036412;28;20209;-66
2021/12/29 12:08:09;;;;;;;1.67;1.58;;;20.40;45.00;;;;;;5035628;28;20234;-66
2021/12/29 12:10:37;;;;;;;2.10;1.60;;;20.40;44.40;;;;;;5036200;28;20699;-68
2021/12/29 12:13:06;;;;;;;1.98;1.77;;;20.40;44.30;;;;;;5053921;28;20195;-69
2021/12/29 12:15:34;;;;;;;1.80;1.70;;;20.40;44.30;;;;;;5036187;28;20209;-68
2021/12/29 12:18:07;;;;;;;1.85;1.75;;;20.40;44.30;;;;;;5053963;28;20212;-70
2021/12/29 12:20:42;;;;;;;1.98;1.70;;;20.40;44.50;;;;;;5037448;28;20210;-67
2021/12/29 12:23:15;;;;;;;1.70;1.60;;;20.40;44.30;;;;;;5036207;28;20260;-69
2021/12/29 12:25:42;;;;;;;1.77;1.60;;;20.40;44.40;;;;;;5037317;28;20198;-69
2021/12/29 12:28:15;;;;;;;1.70;1.60;;;20.50;44.50;;;;;;5036030;28;20246;-67
2021/12/29 12:30:44;;;;;;;1.85;1.70;;;20.50;44.30;;;;;;5036002;28;20211;-67
2021/12/29 12:33:13;;;;;;;1.70;1.48;;;20.50;44.20;;;;;;5063145;28;20239;-69
2021/12/29 12:35:42;;;;;;;2.72;1.75;;;20.50;44.10;;;;;;5057328;28;20243;-68
2021/12/29 12:38:13;;;;;;;1.65;1.55;;;20.50;44.30;;;;;;5037483;28;20703;-69
2021/12/29 12:40:43;;;;;;;1.70;1.60;;;20.50;44.20;;;;;;5040034;28;20191;-70
2021/12/29 12:43:11;;;;;;;2.15;1.90;;;20.50;44.10;;;;;;5054795;28;20198;-67
2021/12/29 12:45:40;;;;;;;2.42;2.22;;;20.50;44.10;;;;;;5054251;28;20699;-70
2021/12/29 12:48:09;;;;;;;2.45;2.10;;;20.50;44.20;;;;;;5036639;28;20229;-68
2021/12/29 12:50:39;;;;;;;3.30;2.40;;;20.50;44.20;;;;;;5036270;28;20211;-68
2021/12/29 12:53:07;;;;;;;2.45;2.03;;;20.50;45.00;;;;;;5036332;28;20242;-68
2021/12/29 12:55:43;;;;;;;2.63;1.90;;;20.50;44.30;;;;;;5035963;28;20195;-66
2021/12/29 12:58:11;;;;;;;2.00;1.80;;;20.50;44.30;;;;;;5036057;28;20683;-69
2021/12/29 13:00:43;;;;;;;2.17;1.75;;;20.50;44.40;;;;;;5035965;28;20250;-67